Portada
METAR-TAF:

METAR-TAF

Aeropuertos :

Valencia, España

Aeropuerto de Valencia

latitud: 39-30N, longitud: 000-28W, altitud: 69 m

Observación

El informe se hizo hace 20 minutos, a las 21:30 UTC
Viento 2 kt con dirección variable
Temperatura 20°C
Humedad 83%
Presión 1021 hPa
Visibilidad 10 km o más
sin nubes por debajo de 1500 m y sin presencia de cumulonimbus.

METAR: LEVC 232130Z VRB02KT CAVOK 20/17 Q1021 NOSIG

Hora: 23:50 (21:50 UTC)

Pronóstico

El informe se hizo hace 4 horas y 50 minutos, a las 17:00 UTC
Pronóstico válido del 23 a las 18 UTC al 24 a las 18 UTC
Viento 4 kt con dirección variable
Visibilidad 10 km o más
Escasas nubes a una altura de 4000 ft
Temporalmente
del 23 a las 18 UTC al 23 a las 20 UTC
Viento 6 kt del este
Evolucionando progresivamente
del 24 a las 11 UTC al 24 a las 13 UTC
Viento 10 kt del este-sureste

TAF: LEVC 231700Z 2318/2418 VRB04KT 9999 FEW040 TX32/2413Z TN15/2406Z TEMPO 2318/2320 08006KT BECMG 2411/2413 12010KT

Observaciones y pronósticos meteorológicos de más de 4000 aeropuertos (mensajes METAR y TAF).

Los puntos amarillos y rojos representan las estaciones disponibles.

Ponga el ratón en el punto deseado para ver el nombre de la estación.

Haga clic para ver las observaciones y los pronósticos meteorológicos.

Para cambiar el mapa : haga clic en los botones verdes con una cruz de color negro para hacer un zoom, en el botón verde con un guión para alejar o en las flechas verdes para mapas adyacentes.


METAR-TAF: